N264KA EGPH-EGKK
Flight info
| Callsign | N264KA |
|---|---|
| Flight time | 1h 13m |
| Altitude | 27000 |
| Route | GOSAM1D GOSAM P600 FENIK L612 NAVSO DCT ADZOP DCT EGTOC DCT KEPAD L151 DISIT DISIT1G |
| Aircraft | C525/L-SDFGRWY/S |
Departure
| Time | 2026-04-22 08:47 |
|---|---|
| Airport | Edinburgh Airport (EGPH) |
Arrival
| Time | 2026-04-22 10:01 |
|---|---|
| Airport | London Gatwick Airport (EGKK) |
| Time | Latitude | Longitude | Altitude | Speed | Heading |
|---|---|---|---|---|---|
| 2026-04-22 08:42 | 55.94765 | -3.34748 | 107 ft | 4 kts | 246° |
| 2026-04-22 08:42 | 55.94799 | -3.34858 | 107 ft | 14 kts | 298° |
| 2026-04-22 08:42 | 55.94868 | -3.35082 | 104 ft | 23 kts | 298° |
| 2026-04-22 08:43 | 55.94954 | -3.35365 | 103 ft | 25 kts | 299° |
| 2026-04-22 08:43 | 55.95045 | -3.35660 | 100 ft | 22 kts | 300° |
| 2026-04-22 08:43 | 55.95125 | -3.35884 | 98 ft | 17 kts | 295° |
| 2026-04-22 08:43 | 55.95203 | -3.35986 | 97 ft | 6 kts | 322° |
| 2026-04-22 08:44 | 55.95193 | -3.36107 | 97 ft | 14 kts | 239° |
| 2026-04-22 08:44 | 55.95128 | -3.36298 | 97 ft | 19 kts | 239° |
| 2026-04-22 08:44 | 55.95055 | -3.36515 | 97 ft | 18 kts | 238° |
| 2026-04-22 08:44 | 55.94987 | -3.36718 | 96 ft | 17 kts | 238° |
| 2026-04-22 08:45 | 55.94919 | -3.36917 | 95 ft | 18 kts | 239° |
| 2026-04-22 08:45 | 55.94841 | -3.37145 | 97 ft | 21 kts | 240° |
| 2026-04-22 08:45 | 55.94749 | -3.37416 | 96 ft | 23 kts | 239° |
| 2026-04-22 08:45 | 55.94659 | -3.37683 | 97 ft | 21 kts | 240° |
| 2026-04-22 08:46 | 55.94592 | -3.37886 | 100 ft | 11 kts | 253° |
| 2026-04-22 08:46 | 55.94644 | -3.38004 | 98 ft | 14 kts | 330° |
| 2026-04-22 08:46 | 55.94738 | -3.38018 | 97 ft | 12 kts | 57° |
| 2026-04-22 08:46 | 55.94748 | -3.37989 | 97 ft | 3 kts | 59° |
| 2026-04-22 08:47 | 55.94903 | -3.37531 | 94 ft | 77 kts | 59° |
| 2026-04-22 08:47 | 55.95322 | -3.36304 | 243 ft | 117 kts | 59° |
| 2026-04-22 08:47 | 55.95858 | -3.34803 | 837 ft | 130 kts | 57° |
| 2026-04-22 08:47 | 55.96550 | -3.33431 | 1611 ft | 132 kts | 47° |
| 2026-04-22 08:48 | 55.97324 | -3.32146 | 2366 ft | 135 kts | 45° |
| 2026-04-22 08:48 | 55.98127 | -3.30855 | 3116 ft | 138 kts | 46° |
| 2026-04-22 08:48 | 55.98910 | -3.29600 | 3825 ft | 139 kts | 47° |
| 2026-04-22 08:48 | 55.99751 | -3.28454 | 4507 ft | 144 kts | 31° |
| 2026-04-22 08:49 | 56.00866 | -3.28037 | 5094 ft | 160 kts | 4° |
| 2026-04-22 08:49 | 56.02104 | -3.28640 | 5679 ft | 176 kts | 335° |
| 2026-04-22 08:49 | 56.03190 | -3.30509 | 6013 ft | 207 kts | 301° |
| 2026-04-22 08:49 | 56.03420 | -3.33664 | 6050 ft | 241 kts | 261° |
| 2026-04-22 08:50 | 56.02992 | -3.37037 | 6056 ft | 265 kts | 253° |
| 2026-04-22 08:50 | 56.02396 | -3.40737 | 6687 ft | 274 kts | 252° |
| 2026-04-22 08:50 | 56.01775 | -3.44552 | 7296 ft | 283 kts | 252° |
| 2026-04-22 08:50 | 56.01158 | -3.48572 | 7904 ft | 291 kts | 253° |
| 2026-04-22 08:51 | 56.00556 | -3.52641 | 8713 ft | 289 kts | 254° |
| 2026-04-22 08:51 | 55.99978 | -3.56604 | 9575 ft | 285 kts | 253° |
| 2026-04-22 08:51 | 55.99406 | -3.60540 | 10266 ft | 287 kts | 253° |
| 2026-04-22 08:51 | 55.98825 | -3.64552 | 10870 ft | 291 kts | 253° |
| 2026-04-22 08:52 | 55.98238 | -3.68608 | 11468 ft | 295 kts | 252° |
| 2026-04-22 08:52 | 55.97644 | -3.72716 | 12134 ft | 295 kts | 252° |
| 2026-04-22 08:52 | 55.97055 | -3.76790 | 12869 ft | 292 kts | 252° |
| 2026-04-22 08:52 | 55.96481 | -3.80755 | 13598 ft | 289 kts | 252° |
| 2026-04-22 08:53 | 55.95912 | -3.84681 | 14326 ft | 285 kts | 252° |
| 2026-04-22 08:53 | 55.95352 | -3.88542 | 15042 ft | 281 kts | 252° |
| 2026-04-22 08:53 | 55.94801 | -3.92327 | 15765 ft | 277 kts | 252° |
| 2026-04-22 08:53 | 55.94258 | -3.96045 | 16501 ft | 273 kts | 252° |
| 2026-04-22 08:54 | 55.93422 | -3.99469 | 17211 ft | 261 kts | 229° |
| 2026-04-22 08:54 | 55.92086 | -4.02108 | 17939 ft | 253 kts | 221° |
| 2026-04-22 08:54 | 55.90660 | -4.04441 | 18660 ft | 246 kts | 218° |
| 2026-04-22 08:54 | 55.89241 | -4.06560 | 19349 ft | 239 kts | 216° |
| 2026-04-22 08:55 | 55.87821 | -4.08562 | 19957 ft | 236 kts | 215° |
| 2026-04-22 08:55 | 55.86379 | -4.10508 | 20525 ft | 233 kts | 213° |
| 2026-04-22 08:55 | 55.84978 | -4.12339 | 21078 ft | 230 kts | 213° |
| 2026-04-22 08:55 | 55.83564 | -4.14145 | 21633 ft | 227 kts | 213° |
| 2026-04-22 08:56 | 55.82185 | -4.15877 | 22174 ft | 222 kts | 213° |
| 2026-04-22 08:56 | 55.80851 | -4.17533 | 22714 ft | 217 kts | 213° |
| 2026-04-22 08:56 | 55.79546 | -4.19137 | 23257 ft | 211 kts | 212° |
| 2026-04-22 08:56 | 55.78281 | -4.20692 | 23789 ft | 205 kts | 213° |
| 2026-04-22 08:57 | 55.77054 | -4.22236 | 24322 ft | 197 kts | 214° |
| 2026-04-22 08:57 | 55.75890 | -4.23705 | 24772 ft | 191 kts | 214° |
| 2026-04-22 08:57 | 55.74717 | -4.25180 | 24967 ft | 198 kts | 214° |
| 2026-04-22 08:57 | 55.73495 | -4.26709 | 25190 ft | 203 kts | 215° |
| 2026-04-22 08:58 | 55.72151 | -4.28119 | 25406 ft | 210 kts | 196° |
| 2026-04-22 08:58 | 55.70568 | -4.27911 | 25665 ft | 215 kts | 162° |
| 2026-04-22 08:58 | 55.69040 | -4.26703 | 25900 ft | 222 kts | 155° |
| 2026-04-22 08:58 | 55.67536 | -4.25282 | 26137 ft | 228 kts | 154° |
| 2026-04-22 08:59 | 55.66004 | -4.23785 | 26353 ft | 234 kts | 154° |
| 2026-04-22 08:59 | 55.64436 | -4.22243 | 26586 ft | 239 kts | 154° |
| 2026-04-22 08:59 | 55.62810 | -4.20646 | 26824 ft | 245 kts | 154° |
| 2026-04-22 08:59 | 55.61123 | -4.18990 | 27066 ft | 250 kts | 154° |
| 2026-04-22 09:00 | 55.59415 | -4.17316 | 27297 ft | 255 kts | 154° |
| 2026-04-22 09:00 | 55.57661 | -4.15599 | 27526 ft | 260 kts | 154° |
| 2026-04-22 09:00 | 55.55870 | -4.13848 | 27756 ft | 265 kts | 155° |
| 2026-04-22 09:00 | 55.54045 | -4.12066 | 27995 ft | 270 kts | 155° |
| 2026-04-22 09:01 | 55.52178 | -4.10245 | 28234 ft | 274 kts | 154° |
| 2026-04-22 09:01 | 55.50268 | -4.08384 | 28476 ft | 278 kts | 155° |
| 2026-04-22 09:01 | 55.48332 | -4.06501 | 28704 ft | 283 kts | 155° |
| 2026-04-22 09:01 | 55.46398 | -4.04621 | 28931 ft | 286 kts | 155° |
| 2026-04-22 09:02 | 55.44411 | -4.02692 | 29168 ft | 290 kts | 155° |
| 2026-04-22 09:02 | 55.42422 | -4.00764 | 29394 ft | 294 kts | 155° |
| 2026-04-22 09:02 | 55.40365 | -3.98774 | 29448 ft | 304 kts | 155° |
| 2026-04-22 09:03 | 55.36028 | -3.94587 | 29453 ft | 324 kts | 155° |
| 2026-04-22 09:03 | 55.31378 | -3.90106 | 29460 ft | 342 kts | 155° |
| 2026-04-22 09:04 | 55.26536 | -3.85449 | 29479 ft | 356 kts | 155° |
| 2026-04-22 09:04 | 55.21452 | -3.80918 | 29484 ft | 364 kts | 164° |
| 2026-04-22 09:05 | 55.16027 | -3.77831 | 29476 ft | 372 kts | 167° |
| 2026-04-22 09:05 | 55.10472 | -3.74823 | 29480 ft | 371 kts | 167° |
| 2026-04-22 09:06 | 55.04926 | -3.71813 | 29482 ft | 370 kts | 167° |
| 2026-04-22 09:06 | 54.99382 | -3.68803 | 29476 ft | 370 kts | 167° |
| 2026-04-22 09:07 | 54.93819 | -3.65786 | 29478 ft | 369 kts | 167° |
| 2026-04-22 09:07 | 54.88306 | -3.62802 | 29475 ft | 369 kts | 167° |
| 2026-04-22 09:08 | 54.82767 | -3.59811 | 29461 ft | 369 kts | 167° |
| 2026-04-22 09:08 | 54.77243 | -3.56835 | 29453 ft | 369 kts | 167° |
| 2026-04-22 09:09 | 54.71694 | -3.53855 | 29454 ft | 369 kts | 167° |
| 2026-04-22 09:09 | 54.66159 | -3.50890 | 29439 ft | 369 kts | 167° |
| 2026-04-22 09:10 | 54.60623 | -3.47933 | 29420 ft | 369 kts | 167° |
| 2026-04-22 09:10 | 54.55082 | -3.44982 | 29410 ft | 369 kts | 167° |
| 2026-04-22 09:11 | 54.49591 | -3.42066 | 29402 ft | 369 kts | 167° |
| 2026-04-22 09:11 | 54.44055 | -3.39134 | 29409 ft | 369 kts | 167° |
| 2026-04-22 09:12 | 54.38528 | -3.36215 | 29404 ft | 369 kts | 167° |
| 2026-04-22 09:12 | 54.33019 | -3.33313 | 29410 ft | 368 kts | 168° |
| 2026-04-22 09:13 | 54.27543 | -3.30437 | 29413 ft | 368 kts | 168° |
| 2026-04-22 09:13 | 54.22456 | -3.27773 | 29412 ft | 368 kts | 168° |
| 2026-04-22 09:14 | 54.17517 | -3.25492 | 29408 ft | 362 kts | 177° |
| 2026-04-22 09:14 | 54.12497 | -3.24583 | 29410 ft | 361 kts | 180° |
| 2026-04-22 09:15 | 54.07083 | -3.23767 | 29408 ft | 361 kts | 180° |
| 2026-04-22 09:15 | 54.01671 | -3.22942 | 29403 ft | 361 kts | 180° |
| 2026-04-22 09:15 | 53.99005 | -3.21989 | 29428 ft | 367 kts | 167° |
| 2026-04-22 09:16 | 53.96383 | -3.20430 | 29421 ft | 368 kts | 164° |
| 2026-04-22 09:16 | 53.91167 | -3.17056 | 29415 ft | 369 kts | 163° |
| 2026-04-22 09:17 | 53.85983 | -3.13691 | 29416 ft | 369 kts | 163° |
| 2026-04-22 09:17 | 53.80764 | -3.10325 | 29418 ft | 369 kts | 163° |
| 2026-04-22 09:18 | 53.75388 | -3.06874 | 29416 ft | 369 kts | 163° |
| 2026-04-22 09:18 | 53.69999 | -3.03402 | 29413 ft | 370 kts | 163° |
| 2026-04-22 09:19 | 53.64627 | -2.99989 | 29401 ft | 370 kts | 163° |
| 2026-04-22 09:19 | 53.59296 | -2.96608 | 29404 ft | 370 kts | 163° |
| 2026-04-22 09:20 | 53.53770 | -2.93111 | 29402 ft | 370 kts | 163° |
| 2026-04-22 09:20 | 53.48172 | -2.89577 | 29407 ft | 370 kts | 163° |
| 2026-04-22 09:21 | 53.42690 | -2.86123 | 29401 ft | 371 kts | 163° |
| 2026-04-22 09:21 | 53.37219 | -2.82687 | 29397 ft | 371 kts | 163° |
| 2026-04-22 09:22 | 53.31825 | -2.79307 | 29402 ft | 371 kts | 163° |
| 2026-04-22 09:22 | 53.26439 | -2.75942 | 29400 ft | 371 kts | 163° |
| 2026-04-22 09:23 | 53.21030 | -2.72572 | 29400 ft | 371 kts | 163° |
| 2026-04-22 09:23 | 53.15774 | -2.69305 | 29398 ft | 372 kts | 163° |
| 2026-04-22 09:24 | 53.10513 | -2.66044 | 29391 ft | 372 kts | 163° |
| 2026-04-22 09:24 | 53.05266 | -2.62800 | 29387 ft | 372 kts | 163° |
| 2026-04-22 09:25 | 53.00049 | -2.59583 | 29382 ft | 372 kts | 163° |
| 2026-04-22 09:25 | 52.94803 | -2.56357 | 29374 ft | 372 kts | 163° |
| 2026-04-22 09:26 | 52.89589 | -2.53158 | 29375 ft | 372 kts | 163° |
| 2026-04-22 09:26 | 52.84383 | -2.49972 | 29374 ft | 372 kts | 163° |
| 2026-04-22 09:26 | 52.81660 | -2.48273 | 29165 ft | 379 kts | 160° |
| 2026-04-22 09:27 | 52.79143 | -2.45903 | 28865 ft | 389 kts | 150° |
| 2026-04-22 09:27 | 52.76666 | -2.43225 | 28546 ft | 396 kts | 148° |
| 2026-04-22 09:27 | 52.74176 | -2.40464 | 28229 ft | 402 kts | 148° |
| 2026-04-22 09:27 | 52.71668 | -2.37678 | 27913 ft | 406 kts | 147° |
| 2026-04-22 09:28 | 52.69167 | -2.34907 | 27601 ft | 410 kts | 148° |
| 2026-04-22 09:28 | 52.66707 | -2.32188 | 27293 ft | 412 kts | 148° |
| 2026-04-22 09:28 | 52.64196 | -2.29421 | 26981 ft | 414 kts | 148° |
| 2026-04-22 09:28 | 52.61683 | -2.26658 | 26676 ft | 415 kts | 148° |
| 2026-04-22 09:29 | 52.59166 | -2.23896 | 26369 ft | 416 kts | 148° |
| 2026-04-22 09:29 | 52.56579 | -2.21064 | 26043 ft | 413 kts | 147° |
| 2026-04-22 09:29 | 52.54055 | -2.18304 | 25726 ft | 410 kts | 148° |
| 2026-04-22 09:29 | 52.51535 | -2.15554 | 25411 ft | 408 kts | 147° |
| 2026-04-22 09:30 | 52.49070 | -2.12869 | 25100 ft | 406 kts | 147° |
| 2026-04-22 09:30 | 52.46579 | -2.10159 | 24792 ft | 405 kts | 147° |
| 2026-04-22 09:30 | 52.44083 | -2.07449 | 24485 ft | 403 kts | 147° |
| 2026-04-22 09:30 | 52.41577 | -2.04732 | 24174 ft | 402 kts | 147° |
| 2026-04-22 09:31 | 52.39080 | -2.02026 | 23866 ft | 400 kts | 147° |
| 2026-04-22 09:31 | 52.36540 | -1.99278 | 23550 ft | 399 kts | 147° |
| 2026-04-22 09:31 | 52.33986 | -1.96521 | 23241 ft | 397 kts | 147° |
| 2026-04-22 09:31 | 52.31502 | -1.93844 | 22940 ft | 396 kts | 146° |
| 2026-04-22 09:32 | 52.29078 | -1.91234 | 22646 ft | 395 kts | 146° |
| 2026-04-22 09:32 | 52.26596 | -1.88567 | 22340 ft | 393 kts | 146° |
| 2026-04-22 09:32 | 52.24130 | -1.85920 | 22038 ft | 392 kts | 146° |
| 2026-04-22 09:32 | 52.21727 | -1.83343 | 21738 ft | 386 kts | 146° |
| 2026-04-22 09:33 | 52.19288 | -1.80731 | 21435 ft | 383 kts | 146° |
| 2026-04-22 09:33 | 52.16882 | -1.78157 | 21127 ft | 380 kts | 146° |
| 2026-04-22 09:33 | 52.14458 | -1.75569 | 20813 ft | 377 kts | 146° |
| 2026-04-22 09:33 | 52.12080 | -1.73033 | 20518 ft | 374 kts | 146° |
| 2026-04-22 09:34 | 52.09738 | -1.70538 | 20239 ft | 372 kts | 146° |
| 2026-04-22 09:34 | 52.07402 | -1.68052 | 19883 ft | 371 kts | 146° |
| 2026-04-22 09:34 | 52.05095 | -1.65600 | 19528 ft | 370 kts | 146° |
| 2026-04-22 09:35 | 52.00399 | -1.60620 | 18818 ft | 366 kts | 145° |
| 2026-04-22 09:35 | 51.98066 | -1.58151 | 18455 ft | 363 kts | 145° |
| 2026-04-22 09:35 | 51.94980 | -1.54889 | 17983 ft | 359 kts | 145° |
| 2026-04-22 09:35 | 51.93464 | -1.53288 | 17758 ft | 358 kts | 145° |
| 2026-04-22 09:36 | 51.91165 | -1.50864 | 17398 ft | 351 kts | 145° |
| 2026-04-22 09:36 | 51.88977 | -1.48561 | 17067 ft | 345 kts | 145° |
| 2026-04-22 09:36 | 51.86863 | -1.46337 | 16754 ft | 342 kts | 145° |
| 2026-04-22 09:36 | 51.84657 | -1.44018 | 16423 ft | 341 kts | 144° |
| 2026-04-22 09:37 | 51.82436 | -1.41687 | 16086 ft | 338 kts | 144° |
| 2026-04-22 09:37 | 51.80270 | -1.39415 | 15755 ft | 337 kts | 144° |
| 2026-04-22 09:37 | 51.78095 | -1.37137 | 15423 ft | 335 kts | 144° |
| 2026-04-22 09:37 | 51.75930 | -1.34873 | 15311 ft | 329 kts | 145° |
| 2026-04-22 09:38 | 51.73840 | -1.32692 | 15306 ft | 331 kts | 145° |
| 2026-04-22 09:38 | 51.71728 | -1.30491 | 15303 ft | 332 kts | 145° |
| 2026-04-22 09:38 | 51.69595 | -1.28266 | 15304 ft | 333 kts | 145° |
| 2026-04-22 09:38 | 51.67489 | -1.26071 | 15302 ft | 331 kts | 145° |
| 2026-04-22 09:39 | 51.65332 | -1.23828 | 15297 ft | 326 kts | 145° |
| 2026-04-22 09:39 | 51.63242 | -1.21657 | 15297 ft | 323 kts | 145° |
| 2026-04-22 09:39 | 51.61177 | -1.19514 | 15298 ft | 320 kts | 145° |
| 2026-04-22 09:39 | 51.59175 | -1.17438 | 15300 ft | 318 kts | 145° |
| 2026-04-22 09:40 | 51.57111 | -1.15301 | 15306 ft | 316 kts | 145° |
| 2026-04-22 09:40 | 51.55050 | -1.13169 | 15306 ft | 315 kts | 145° |
| 2026-04-22 09:40 | 51.52948 | -1.10997 | 15298 ft | 314 kts | 145° |
| 2026-04-22 09:40 | 51.50878 | -1.08859 | 15304 ft | 313 kts | 145° |
| 2026-04-22 09:41 | 51.48807 | -1.06725 | 15302 ft | 313 kts | 145° |
| 2026-04-22 09:41 | 51.46774 | -1.04630 | 15297 ft | 312 kts | 145° |
| 2026-04-22 09:41 | 51.44818 | -1.02617 | 15303 ft | 312 kts | 145° |
| 2026-04-22 09:41 | 51.42934 | -1.00681 | 15303 ft | 312 kts | 145° |
| 2026-04-22 09:42 | 51.41071 | -0.98768 | 15298 ft | 312 kts | 145° |
| 2026-04-22 09:42 | 51.39137 | -0.96785 | 15300 ft | 312 kts | 145° |
| 2026-04-22 09:42 | 51.37107 | -0.94705 | 15298 ft | 312 kts | 145° |
| 2026-04-22 09:42 | 51.35013 | -0.92562 | 15293 ft | 312 kts | 145° |
| 2026-04-22 09:43 | 51.32919 | -0.90421 | 15291 ft | 312 kts | 145° |
| 2026-04-22 09:43 | 51.30837 | -0.88294 | 15292 ft | 312 kts | 145° |
| 2026-04-22 09:43 | 51.28843 | -0.86261 | 15285 ft | 312 kts | 145° |
| 2026-04-22 09:43 | 51.26888 | -0.84269 | 15288 ft | 312 kts | 145° |
| 2026-04-22 09:44 | 51.24865 | -0.82209 | 15282 ft | 312 kts | 145° |
| 2026-04-22 09:44 | 51.22863 | -0.80173 | 15278 ft | 312 kts | 145° |
| 2026-04-22 09:44 | 51.20828 | -0.78106 | 15277 ft | 312 kts | 145° |
| 2026-04-22 09:44 | 51.18772 | -0.76019 | 15278 ft | 312 kts | 145° |
| 2026-04-22 09:45 | 51.16704 | -0.73923 | 15254 ft | 313 kts | 145° |
| 2026-04-22 09:45 | 51.14546 | -0.71736 | 14848 ft | 322 kts | 145° |
| 2026-04-22 09:45 | 51.12387 | -0.69551 | 14457 ft | 326 kts | 145° |
| 2026-04-22 09:45 | 51.10225 | -0.67368 | 14060 ft | 321 kts | 145° |
| 2026-04-22 09:46 | 51.08103 | -0.65229 | 13660 ft | 317 kts | 145° |
| 2026-04-22 09:46 | 51.06105 | -0.63099 | 13255 ft | 312 kts | 138° |
| 2026-04-22 09:46 | 51.04820 | -0.60108 | 12887 ft | 301 kts | 113° |
| 2026-04-22 09:46 | 51.03767 | -0.56840 | 12491 ft | 297 kts | 117° |
| 2026-04-22 09:47 | 51.02728 | -0.53652 | 12097 ft | 292 kts | 116° |
| 2026-04-22 09:47 | 51.01720 | -0.50534 | 11706 ft | 285 kts | 115° |
| 2026-04-22 09:47 | 51.00770 | -0.47572 | 11298 ft | 279 kts | 115° |
| 2026-04-22 09:47 | 50.99798 | -0.44527 | 10869 ft | 273 kts | 115° |
| 2026-04-22 09:48 | 50.98888 | -0.41669 | 10465 ft | 269 kts | 115° |
| 2026-04-22 09:48 | 50.97958 | -0.38741 | 10044 ft | 265 kts | 115° |
| 2026-04-22 09:48 | 50.97025 | -0.35800 | 9617 ft | 263 kts | 115° |
| 2026-04-22 09:48 | 50.96112 | -0.32924 | 9198 ft | 260 kts | 115° |
| 2026-04-22 09:49 | 50.95253 | -0.30212 | 8800 ft | 259 kts | 115° |
| 2026-04-22 09:49 | 50.94353 | -0.27377 | 8496 ft | 253 kts | 115° |
| 2026-04-22 09:49 | 50.93507 | -0.24712 | 8380 ft | 243 kts | 115° |
| 2026-04-22 09:49 | 50.92646 | -0.22004 | 8252 ft | 236 kts | 115° |
| 2026-04-22 09:50 | 50.91790 | -0.19309 | 8131 ft | 232 kts | 115° |
| 2026-04-22 09:50 | 50.90963 | -0.16709 | 8013 ft | 230 kts | 115° |
| 2026-04-22 09:50 | 50.90132 | -0.14097 | 7764 ft | 234 kts | 115° |
| 2026-04-22 09:50 | 50.89294 | -0.11468 | 7490 ft | 237 kts | 115° |
| 2026-04-22 09:51 | 50.88475 | -0.08906 | 7199 ft | 223 kts | 115° |
| 2026-04-22 09:51 | 50.87608 | -0.06641 | 6890 ft | 209 kts | 111° |
| 2026-04-22 09:51 | 50.87659 | -0.04242 | 6602 ft | 201 kts | 71° |
| 2026-04-22 09:51 | 50.88618 | -0.02411 | 6309 ft | 212 kts | 36° |
| 2026-04-22 09:52 | 50.90353 | -0.02015 | 6051 ft | 251 kts | 357° |
| 2026-04-22 09:52 | 50.92179 | -0.03559 | 5794 ft | 283 kts | 320° |
| 2026-04-22 09:52 | 50.93587 | -0.06413 | 5543 ft | 295 kts | 307° |
| 2026-04-22 09:52 | 50.94817 | -0.09461 | 5281 ft | 302 kts | 304° |
| 2026-04-22 09:53 | 50.95981 | -0.12492 | 5028 ft | 307 kts | 303° |
| 2026-04-22 09:53 | 50.97126 | -0.15520 | 4962 ft | 292 kts | 303° |
| 2026-04-22 09:53 | 50.98211 | -0.18461 | 4926 ft | 268 kts | 300° |
| 2026-04-22 09:53 | 50.98918 | -0.21488 | 4755 ft | 263 kts | 291° |
| 2026-04-22 09:54 | 50.99607 | -0.24587 | 4477 ft | 264 kts | 291° |
| 2026-04-22 09:54 | 51.00284 | -0.27677 | 4197 ft | 265 kts | 291° |
| 2026-04-22 09:54 | 51.00957 | -0.30780 | 3916 ft | 265 kts | 291° |
| 2026-04-22 09:54 | 51.01626 | -0.33878 | 3636 ft | 266 kts | 291° |
| 2026-04-22 09:55 | 51.02277 | -0.36911 | 3362 ft | 266 kts | 291° |
| 2026-04-22 09:55 | 51.02950 | -0.40050 | 3080 ft | 266 kts | 291° |
| 2026-04-22 09:55 | 51.03607 | -0.43119 | 2960 ft | 258 kts | 293° |
| 2026-04-22 09:55 | 51.04784 | -0.45486 | 2939 ft | 233 kts | 335° |
| 2026-04-22 09:56 | 51.06423 | -0.46003 | 2944 ft | 201 kts | 19° |
| 2026-04-22 09:56 | 51.07789 | -0.45062 | 2961 ft | 189 kts | 38° |
| 2026-04-22 09:56 | 51.08999 | -0.43862 | 2842 ft | 188 kts | 41° |
| 2026-04-22 09:56 | 51.10195 | -0.42587 | 2427 ft | 190 kts | 41° |
| 2026-04-22 09:57 | 51.11356 | -0.41314 | 2044 ft | 188 kts | 42° |
| 2026-04-22 09:57 | 51.12048 | -0.39588 | 1954 ft | 162 kts | 84° |
| 2026-04-22 09:57 | 51.12219 | -0.37751 | 1947 ft | 148 kts | 79° |
| 2026-04-22 09:57 | 51.12455 | -0.36007 | 1952 ft | 145 kts | 78° |
| 2026-04-22 09:58 | 51.12687 | -0.34331 | 1945 ft | 141 kts | 79° |
| 2026-04-22 09:58 | 51.12924 | -0.32635 | 1731 ft | 144 kts | 78° |
| 2026-04-22 09:58 | 51.13151 | -0.30996 | 1509 ft | 143 kts | 77° |
| 2026-04-22 09:58 | 51.13369 | -0.29437 | 1329 ft | 140 kts | 77° |
| 2026-04-22 09:59 | 51.13580 | -0.27920 | 1154 ft | 134 kts | 77° |
| 2026-04-22 09:59 | 51.13767 | -0.26575 | 1001 ft | 116 kts | 77° |
| 2026-04-22 09:59 | 51.13932 | -0.25382 | 806 ft | 105 kts | 76° |
| 2026-04-22 09:59 | 51.14080 | -0.24324 | 681 ft | 93 kts | 78° |
| 2026-04-22 10:00 | 51.14218 | -0.23341 | 542 ft | 92 kts | 75° |
| 2026-04-22 10:00 | 51.14358 | -0.22341 | 444 ft | 95 kts | 76° |
| 2026-04-22 10:00 | 51.14503 | -0.21288 | 308 ft | 96 kts | 76° |
| 2026-04-22 10:00 | 51.14636 | -0.20317 | 191 ft | 85 kts | 76° |
| 2026-04-22 10:01 | 51.14747 | -0.19526 | 187 ft | 61 kts | 76° |
| 2026-04-22 10:01 | 51.14824 | -0.18959 | 191 ft | 45 kts | 77° |
| 2026-04-22 10:01 | 51.14922 | -0.18548 | 191 ft | 33 kts | 52° |
| 2026-04-22 10:01 | 51.15046 | -0.18302 | 191 ft | 21 kts | 51° |
| 2026-04-22 10:02 | 51.15111 | -0.18192 | 189 ft | 10 kts | 17° |
| 2026-04-22 10:02 | 51.15128 | -0.18190 | 188 ft | 0 kts | 352° |
| 2026-04-22 10:02 | 51.15133 | -0.18191 | 188 ft | 2 kts | 352° |
| 2026-04-22 10:03 | 51.15148 | -0.18195 | 188 ft | 1 kts | 349° |
| 2026-04-22 10:03 | 51.15153 | -0.18197 | 188 ft | 3 kts | 348° |
| 2026-04-22 10:03 | 51.15182 | -0.18286 | 189 ft | 16 kts | 258° |
| 2026-04-22 10:03 | 51.15155 | -0.18522 | 191 ft | 26 kts | 259° |
| 2026-04-22 10:04 | 51.15116 | -0.18816 | 191 ft | 26 kts | 258° |
| 2026-04-22 10:04 | 51.15078 | -0.19101 | 189 ft | 25 kts | 256° |
| 2026-04-22 10:04 | 51.15084 | -0.19292 | 188 ft | 17 kts | 340° |
| 2026-04-22 10:04 | 51.15213 | -0.19338 | 187 ft | 19 kts | 346° |
| 2026-04-22 10:05 | 51.15338 | -0.19381 | 187 ft | 13 kts | 359° |
| 2026-04-22 10:05 | 51.15379 | -0.19272 | 187 ft | 13 kts | 33° |
| 2026-04-22 10:05 | 51.15435 | -0.19287 | 187 ft | 3 kts | 193° |
| 2026-04-22 10:05 | 51.15429 | -0.19286 | 187 ft | 0 kts | 166° |